Terminal Aerodrome Forecast
Issued by NWS Duluth, MN

Home | Current Version | Previous Version | Text Only | Print | Product List | Glossary On
Versions: 1 2 3 4 5 6 7 8 9 10 11 12 13 14 15 16 17 18 19 20
000
FTUS43 KDLH 161500 AAA
TAFINL
TAF AMD
KINL 161544Z 1616/1712 22008KT P6SM VCSH OVC050
     FM161800 26008KT P6SM VCSH OVC050
     FM162300 32008KT P6SM BKN080
     FM170400 34004KT P6SM SCT080 SCT150=

USA.gov is the U.S. government's official web portal to all federal, state and local government web resources and services.